Aimwell, LA

2:42 PM CDT on July 23, 2014 (GMT -0500)
Alexandria Esler Regional (KESF) Elev 112 ft | 31.39 °N, 92.30 °W | Change Station

Current weather conditions updated 14 minutes ago

Clear
Clear
91 °F
Feels Like 98 °F
N
5
Wind Variable Wind from Variable

Today is forecast to be nearly the same temperature as yesterday.

Today
High -- | Low -- °F
--% Chance of Precip.
Yesterday
High -- | Low -- °F
Precip. -- in
6:18 AM 8:10 PM
Waning Crescent, 9% visible
Pressure 30.02 in
Visibility 10.0 miles
Clouds Scattered Clouds 3900 ft
Mostly Cloudy 7500 ft
Mostly Cloudy 9000 ft
Heat Index 98 °F
Dew Point 72 °F
Humidity 53%
Rainfall 0.00 in
Snow Depth Not available.
UV 6 out of 12
Pollen 3.60 out of 12
Air Quality Not available.
Flu Activity Not available.
SPECI KESF 231928Z AUTO VRB04KT 10SM VCTS SCT039 BKN075 BKN090 33/22 A3002 RMK AO2 T03280222

More Conditions Fewer Conditions

Pressure 30.02 in
Visibility 10.0 miles
Clouds Scattered Clouds 3900 ft
Mostly Cloudy 7500 ft
Mostly Cloudy 9000 ft
Heat Index 98 °F
Dew Point 72 °F
Humidity 53%
Rainfall 0.00 in
Snow Depth Not available.
UV 6 out of 12
Pollen 3.60 out of 12
Air Quality Not available.
Flu Activity Not available.
SPECI KESF 231928Z AUTO VRB04KT 10SM VCTS SCT039 BKN075 BKN090 33/22 A3002 RMK AO2 T03280222

More Conditions Fewer Conditions

10-Day Weather Forecast

Almanac

Astronomy

Jul. 23, 2014 Rise Set
Actual Time 6:18 AM CDT 8:10 PM CDT
Civil Twilight 5:50 AM CDT 8:37 PM CDT
Nautical Twilight 5:18 AM CDT 9:10 PM CDT
Astronomical Twilight 4:43 AM CDT 9:44 PM CDT
Moon 3:36 AM CDT 5:40 PM CDT
Length of Visible Light 14h 46m
Length of Day
13h 52m
Tomorrow will be 1m 13s shorter.
Waning Crescent, 9% of the Moon is Illuminated
Today
Waning Crescent
Jul 26
New
Aug 3
First Quarter
Aug 10
Full
Aug 17
Last Quarter

Today's Extremes

State Highs State Lows

Community

WunderPhotos

Upload Photos

1,736,734 photos uploaded!

Nearby

Snow Depth

Station Depth Elevation
No new snow has been reported.

Earthquake Activity

City Distance Mag. Time & Date
No recent earthquake activity has been reported nearby.
Minimum magnitude displayed is 2.5.

Coastal Water Temperatures

Place Temperature
No Stations Reporting

Nearby Weather Stations

Station Location Temp. Heat Index Dew Point Humidity Wind Precip. Elev Updated Type
MesoWest URANIA , Tullos, LA 86 °F 83 °F - - North  at  - 0.00 in / hr 111 ft 1:25 PM CDT MADIS
MesoWest GRAYSN , Clarks, LA 86 °F 83 °F - - North  at  - 0.00 in / hr 178 ft 1:05 PM CDT MADIS
MesoWest VENEER , Georgetown, LA 82 °F 80 °F - - North  at  - 0.00 in / hr 94 ft 1:05 PM CDT MADIS

Show More Stations Show Fewer Stations